Time;durP1;ratioP1;P1;durP2;ratioP2;P2;SDS_P1;SDS_P2;PMS_P1;PMS_P2;Temp;Humidity;BMP_temperature;BMP_pressure;BME280_temperature;BME280_humidity;BME280_pressure;Samples;Min_cycle;Max_cycle;Signal;HPM_P1;HPM_P2
2023/09/10 00:01:17;;;;;;;6.17;2.63;;;17.20;65.90;;;17.58;48.04;95341.53;5083725;28;20486;-58
2023/09/10 00:03:44;;;;;;;8.03;3.47;;;17.20;65.90;;;17.56;47.88;95347.00;5079497;28;21028;-59
2023/09/10 00:06:12;;;;;;;5.07;2.83;;;17.20;65.90;;;17.55;47.87;95343.53;5080580;28;20943;-59
2023/09/10 00:08:41;;;;;;;5.43;2.70;;;17.10;66.40;;;17.52;48.28;95335.03;5082826;28;20553;-61
2023/09/10 00:11:08;;;;;;;6.13;2.57;;;17.10;66.90;;;17.50;48.63;95345.03;5083393;28;20454;-59
2023/09/10 00:13:35;;;;;;;8.13;2.20;;;17.10;67.70;;;17.46;48.64;95341.91;5080354;28;20997;-59
2023/09/10 00:16:02;;;;;;;3.60;2.70;;;17.10;67.30;;;17.43;48.25;95338.72;5082517;28;20521;-58
2023/09/10 00:18:30;;;;;;;7.30;3.20;;;17.00;67.30;;;17.36;48.29;95331.44;5083270;28;20525;-59
2023/09/10 00:20:57;;;;;;;4.60;2.57;;;17.00;67.10;;;17.28;48.66;95346.59;5079101;28;20920;-60
2023/09/10 00:23:25;;;;;;;4.37;2.47;;;16.90;67.10;;;17.18;48.54;95336.97;5081401;28;20447;-58
2023/09/10 00:25:55;;;;;;;12.50;2.60;;;16.80;67.30;;;17.13;48.76;95333.97;5081573;28;20454;-60
2023/09/10 00:28:22;;;;;;;4.60;2.47;;;16.70;68.00;;;17.12;48.97;95340.31;5081847;28;20874;-59
2023/09/10 00:30:53;;;;;;;2.90;2.40;;;16.70;68.40;;;17.11;49.45;95328.00;5081290;28;20446;-60
2023/09/10 00:33:20;;;;;;;5.10;2.87;;;16.70;68.70;;;17.09;49.33;95330.00;5081698;28;20458;-59
2023/09/10 00:35:47;;;;;;;5.40;2.73;;;16.70;69.00;;;17.08;49.45;95330.19;5081092;28;20507;-60
2023/09/10 00:38:15;;;;;;;3.23;2.40;;;16.70;69.00;;;17.01;49.44;95330.03;5084045;28;20454;-58
2023/09/10 00:40:42;;;;;;;2.93;2.37;;;16.60;68.20;;;16.96;48.86;95329.69;5080615;28;21099;-59
2023/09/10 00:43:11;;;;;;;3.63;2.50;;;16.60;68.40;;;16.91;48.93;95327.53;5085641;28;20813;-59
2023/09/10 00:45:38;;;;;;;6.57;2.43;;;16.50;68.10;;;16.83;48.92;95323.03;5087085;28;20447;-58
2023/09/10 00:48:06;;;;;;;5.43;2.73;;;16.50;67.90;;;16.81;49.67;95327.69;5082672;28;20451;-59
2023/09/10 00:50:34;;;;;;;15.53;3.47;;;16.40;69.50;;;16.80;49.40;95328.66;5080164;28;20516;-60
2023/09/10 00:53:02;;;;;;;4.90;2.57;;;16.40;69.50;;;16.80;49.31;95334.00;5086419;28;20963;-61
2023/09/10 00:55:32;;;;;;;2.13;2.03;;;16.40;69.50;;;16.79;49.33;95335.00;5079119;28;20989;-59
2023/09/10 00:57:59;;;;;;;3.63;2.17;;;16.40;69.00;;;16.78;49.37;95333.34;5082149;28;20435;-57
2023/09/10 01:00:28;;;;;;;3.40;1.80;;;16.40;69.50;;;16.79;49.28;95334.16;5081286;28;20559;-59
2023/09/10 01:02:56;;;;;;;2.07;1.97;;;16.40;69.50;;;16.80;49.20;95338.47;5080112;28;20817;-59
2023/09/10 01:05:23;;;;;;;2.70;2.50;;;16.40;69.50;;;16.80;49.01;95335.81;5080855;28;20534;-59
2023/09/10 01:07:50;;;;;;;3.20;2.47;;;16.40;69.50;;;16.80;49.34;95333.16;5080267;28;20455;-59
2023/09/10 01:10:18;;;;;;;7.10;2.93;;;16.40;69.50;;;16.80;49.16;95328.66;5083133;28;21025;-59
2023/09/10 01:12:51;;;;;;;4.30;1.80;;;16.40;69.10;;;16.79;48.86;95327.03;5078390;28;20541;-59
2023/09/10 01:15:24;;;;;;;3.83;2.37;;;16.40;69.00;;;16.75;49.10;95331.00;5080137;28;20889;-59
2023/09/10 01:18:00;;;;;;;4.30;2.43;;;16.40;69.10;;;16.74;49.35;95321.38;5080127;28;20469;-59
2023/09/10 01:20:53;;;;;;;8.03;2.20;;;16.30;69.40;;;16.74;50.21;95324.03;5081576;28;20977;-59
2023/09/10 01:23:26;;;;;;;7.77;2.30;;;16.40;70.70;;;16.72;49.28;95323.38;5080668;28;20438;-58
2023/09/10 01:25:56;;;;;;;2.80;2.60;;;16.40;70.10;;;16.70;49.25;95325.38;5078547;28;20981;-59
2023/09/10 01:28:24;;;;;;;4.57;2.10;;;16.30;70.00;;;16.70;49.27;95332.50;5082980;28;20463;-60
2023/09/10 01:30:51;;;;;;;2.03;1.87;;;16.30;70.40;;;16.68;49.88;95332.66;5081372;28;20507;-60
2023/09/10 01:33:22;;;;;;;3.90;1.67;;;16.30;71.30;;;16.66;50.42;95332.81;5078332;28;20874;-58
2023/09/10 01:35:53;;;;;;;2.50;2.20;;;16.30;71.50;;;16.65;50.22;95333.00;5081477;28;20445;-59
2023/09/10 01:38:24;;;;;;;3.13;2.57;;;16.30;71.80;;;16.62;50.03;95333.31;5073317;28;20446;-59
2023/09/10 01:40:57;;;;;;;3.30;2.00;;;16.30;71.80;;;16.60;49.97;95332.66;5077264;28;20511;-58
2023/09/10 01:43:24;;;;;;;4.50;2.33;;;16.20;71.60;;;16.58;50.21;95332.00;5078599;28;20450;-59
2023/09/10 01:45:51;;;;;;;5.17;2.20;;;16.20;71.80;;;16.54;50.91;95330.69;5083334;28;20465;-59
2023/09/10 01:48:18;;;;;;;3.83;2.03;;;16.20;72.60;;;16.53;50.43;95334.31;5086150;28;20531;-59
2023/09/10 01:50:46;;;;;;;2.60;2.40;;;16.20;72.60;;;16.51;50.69;95339.78;5082696;28;20459;-58
2023/09/10 01:53:16;;;;;;;6.17;2.50;;;16.20;72.90;;;16.48;50.58;95345.44;5084338;28;20458;-59
2023/09/10 01:55:44;;;;;;;3.73;2.20;;;16.10;72.80;;;16.46;50.34;95334.16;5081914;28;20445;-57
2023/09/10 01:58:13;;;;;;;2.97;2.70;;;16.10;72.70;;;16.43;50.42;95340.63;5077851;28;20473;-60
2023/09/10 02:00:40;;;;;;;3.47;2.30;;;16.10;72.90;;;16.41;50.80;95344.44;5084105;28;20454;-59
2023/09/10 02:03:07;;;;;;;1.87;1.70;;;16.00;73.40;;;16.37;50.85;95343.94;5080354;28;20522;-59
2023/09/10 02:05:34;;;;;;;5.70;2.60;;;16.00;73.50;;;16.34;50.71;95348.75;5080681;28;20458;-58
2023/09/10 02:08:02;;;;;;;3.93;2.13;;;16.00;73.50;;;16.29;50.82;95346.56;5078638;28;20451;-59
2023/09/10 02:10:29;;;;;;;5.20;2.30;;;15.90;73.40;;;16.24;50.77;95348.91;5085391;28;20561;-58
2023/09/10 02:12:56;;;;;;;6.23;3.23;;;15.90;73.40;;;16.19;50.85;95345.88;5077435;28;21037;-58
2023/09/10 02:15:25;;;;;;;5.10;2.47;;;15.80;73.40;;;16.13;50.69;95356.16;5080543;28;20466;-59
2023/09/10 02:17:54;;;;;;;2.27;2.10;;;15.80;73.50;;;16.09;50.95;95349.50;5077841;28;20447;-60
2023/09/10 02:20:21;;;;;;;3.00;2.30;;;15.80;73.80;;;16.04;50.52;95349.19;5077660;28;20540;-59
2023/09/10 02:22:48;;;;;;;3.23;1.93;;;15.70;74.00;;;16.00;50.91;95350.47;5081002;28;21045;-58
2023/09/10 02:25:16;;;;;;;6.73;2.77;;;15.70;74.30;;;15.96;51.17;95343.84;5080751;28;20477;-57
2023/09/10 02:27:43;;;;;;;4.20;2.50;;;15.60;74.30;;;15.92;51.19;95353.13;5080878;28;20445;-59
2023/09/10 02:30:11;;;;;;;4.00;1.97;;;15.60;74.60;;;15.87;51.06;95363.38;5078172;28;20483;-59
2023/09/10 02:32:39;;;;;;;2.33;2.23;;;15.50;74.60;;;15.80;51.36;95357.03;5079553;28;20839;-60
2023/09/10 02:35:08;;;;;;;5.57;2.50;;;15.50;75.00;;;15.77;51.18;95358.22;5079371;28;20882;-59
2023/09/10 02:37:35;;;;;;;3.50;2.27;;;15.40;74.90;;;15.70;51.11;95365.13;5076495;28;20459;-60
2023/09/10 02:40:04;;;;;;;5.50;2.57;;;15.40;74.90;;;15.66;51.38;95355.81;5078139;28;20476;-58
2023/09/10 02:42:31;;;;;;;7.87;2.30;;;15.30;74.90;;;15.61;51.60;95358.94;5082041;28;20492;-59
2023/09/10 02:44:59;;;;;;;3.97;3.07;;;15.30;75.60;;;15.59;51.71;95356.44;5084996;28;20486;-59
2023/09/10 02:47:27;;;;;;;5.33;2.57;;;15.30;76.30;;;15.58;51.96;95360.09;5080225;28;20551;-59
2023/09/10 02:49:57;;;;;;;2.80;2.40;;;15.30;76.80;;;15.57;52.14;95350.47;5079567;28;20481;-59
2023/09/10 02:52:24;;;;;;;7.30;3.17;;;15.20;77.00;;;15.58;52.09;95348.63;5078860;28;20462;-60
2023/09/10 02:54:51;;;;;;;5.43;2.57;;;15.20;77.30;;;15.58;52.20;95348.63;5082967;28;20527;-59
2023/09/10 02:57:19;;;;;;;9.50;3.00;;;15.30;77.90;;;15.56;52.42;95345.31;5080181;28;20447;-59
2023/09/10 02:59:46;;;;;;;2.60;1.80;;;15.20;78.30;;;15.55;52.38;95351.59;5082507;28;20991;-59
2023/09/10 03:02:13;;;;;;;3.80;2.33;;;15.20;78.50;;;15.54;52.94;95352.63;5083770;28;20612;-59
2023/09/10 03:04:40;;;;;;;3.80;2.20;;;15.20;79.40;;;15.54;52.64;95357.91;5083231;28;20527;-58
2023/09/10 03:07:09;;;;;;;6.03;2.30;;;15.20;79.30;;;15.53;52.59;95353.59;5081307;28;20977;-59
2023/09/10 03:09:36;;;;;;;3.13;2.83;;;15.20;79.50;;;15.52;52.69;95349.28;5082397;28;20534;-59
2023/09/10 03:12:25;;;;;;;5.93;2.37;;;15.20;79.60;;;15.51;53.05;95353.75;5084001;28;20454;-59
2023/09/10 03:14:52;;;;;;;5.27;2.70;;;15.20;80.20;;;15.50;52.81;95362.69;5078277;28;20482;-57
2023/09/10 03:17:21;;;;;;;3.23;2.30;;;15.20;80.60;;;15.48;52.87;95361.22;5082738;28;20458;-60
2023/09/10 03:19:48;;;;;;;3.40;2.30;;;15.20;80.30;;;15.47;53.18;95359.53;5083733;28;20470;-60
2023/09/10 03:22:17;;;;;;;2.77;2.30;;;15.20;81.10;;;15.46;53.03;95352.56;5085421;28;20657;-60
2023/09/10 03:24:44;;;;;;;13.90;3.07;;;15.10;81.00;;;15.46;52.84;95357.84;5077136;28;20473;-59
2023/09/10 03:27:11;;;;;;;8.60;2.30;;;15.10;81.00;;;15.46;53.18;95361.38;5078852;28;20435;-59
2023/09/10 03:29:38;;;;;;;5.07;2.60;;;15.10;81.00;;;15.47;53.14;95356.88;5083680;28;20481;-59
2023/09/10 03:32:07;;;;;;;8.60;2.50;;;15.10;81.00;;;15.46;53.09;95360.50;5081372;28;21024;-59
2023/09/10 03:34:34;;;;;;;3.83;2.70;;;15.10;81.40;;;15.43;53.30;95364.31;5083739;28;20612;-59
2023/09/10 03:37:03;;;;;;;6.97;2.47;;;15.10;81.70;;;15.41;53.26;95363.63;5081108;28;20446;-58
2023/09/10 03:39:31;;;;;;;6.93;2.77;;;15.10;81.90;;;15.41;53.57;95371.59;5083464;28;20465;-59
2023/09/10 03:41:59;;;;;;;4.73;2.50;;;15.10;82.30;;;15.38;53.43;95371.91;5080612;28;20874;-61
2023/09/10 03:44:26;;;;;;;4.47;3.03;;;15.10;82.60;;;15.36;53.29;95379.19;5083342;28;21550;-59
2023/09/10 03:46:53;;;;;;;7.53;2.90;;;15.10;82.50;;;15.33;53.25;95372.38;5081172;28;20509;-60
2023/09/10 03:49:21;;;;;;;8.77;3.23;;;15.00;82.20;;;15.31;53.88;95378.84;5082655;28;20572;-59
2023/09/10 03:51:49;;;;;;;4.60;3.03;;;15.00;83.00;;;15.30;53.74;95383.28;5082780;28;20527;-61
2023/09/10 03:54:16;;;;;;;12.00;2.70;;;14.90;83.10;;;15.29;53.92;95378.13;5082470;28;20474;-61
2023/09/10 03:56:45;;;;;;;8.03;2.90;;;15.00;83.80;;;15.28;53.79;95382.63;5084486;28;20463;-61
2023/09/10 03:59:12;;;;;;;5.83;2.80;;;15.00;83.50;;;15.27;53.64;95375.66;5085012;28;20477;-61
2023/09/10 04:01:39;;;;;;;10.70;3.27;;;14.90;83.80;;;15.24;53.77;95374.16;5087544;28;20461;-60
2023/09/10 04:04:07;;;;;;;8.73;2.80;;;14.90;83.60;;;15.23;53.47;95382.25;5086730;28;21118;-59
2023/09/10 04:06:34;;;;;;;4.77;2.83;;;14.90;83.70;;;15.17;53.83;95383.72;5081658;28;21046;-58
2023/09/10 04:09:03;;;;;;;4.83;2.63;;;14.90;84.10;;;15.15;53.84;95379.53;5083759;28;20550;-61
2023/09/10 04:11:30;;;;;;;5.17;3.63;;;14.80;84.70;;;15.15;54.34;95384.84;5082619;28;20512;-60
2023/09/10 04:13:59;;;;;;;6.10;3.77;;;14.80;86.00;;;15.15;54.66;95391.00;5081867;28;20523;-60
2023/09/10 04:16:27;;;;;;;7.07;3.37;;;14.80;86.20;;;15.16;54.84;95391.81;5085950;28;20530;-61
2023/09/10 04:18:55;;;;;;;4.73;3.17;;;14.80;86.80;;;15.15;54.13;95385.69;5081611;28;20497;-60
2023/09/10 04:21:22;;;;;;;10.63;2.87;;;14.80;85.80;;;15.13;54.38;95390.28;5082778;28;20461;-60
2023/09/10 04:23:49;;;;;;;10.20;3.17;;;14.80;85.80;;;15.12;54.19;95388.66;5082606;28;20506;-59
2023/09/10 04:26:17;;;;;;;5.67;3.27;;;14.80;85.80;;;15.12;54.40;95391.31;5078288;28;21003;-59
2023/09/10 04:28:44;;;;;;;10.13;2.83;;;14.80;86.30;;;15.14;54.40;95388.50;5081920;28;20485;-60
2023/09/10 04:31:16;;;;;;;3.40;3.00;;;14.80;86.10;;;15.17;54.50;95399.59;5083309;28;20459;-60
2023/09/10 04:33:43;;;;;;;10.03;2.87;;;14.90;86.60;;;15.20;54.75;95403.78;5086835;28;20470;-60
2023/09/10 04:36:11;;;;;;;11.43;2.90;;;14.90;87.00;;;15.22;54.31;95402.63;5083194;28;20544;-59
2023/09/10 04:38:39;;;;;;;19.23;3.20;;;14.90;86.40;;;15.27;54.05;95404.78;5083889;28;20496;-60
2023/09/10 04:41:06;;;;;;;4.10;3.70;;;14.90;86.30;;;15.32;54.43;95404.34;5083909;28;20458;-59
2023/09/10 04:43:33;;;;;;;7.10;3.30;;;15.00;87.20;;;15.38;54.51;95396.59;5086188;28;20490;-60
2023/09/10 04:46:00;;;;;;;8.00;3.13;;;15.00;87.10;;;15.45;54.70;95402.09;5083277;28;21232;-59
2023/09/10 04:48:29;;;;;;;6.13;3.60;;;15.10;87.50;;;15.51;54.38;95400.66;5083716;28;20578;-61
2023/09/10 04:50:56;;;;;;;4.00;2.80;;;15.20;87.20;;;15.56;54.15;95399.19;5077897;28;20532;-61
2023/09/10 04:53:23;;;;;;;4.67;2.83;;;15.20;87.00;;;15.62;54.04;95407.50;5079903;28;20451;-61
2023/09/10 04:55:54;;;;;;;5.67;2.90;;;15.30;87.20;;;15.66;54.32;95398.22;5082705;28;20459;-60
2023/09/10 04:58:22;;;;;;;4.90;2.93;;;15.30;87.00;;;15.75;53.97;95408.75;5079764;28;20484;-59
2023/09/10 05:00:50;;;;;;;15.03;2.83;;;15.40;86.80;;;15.80;54.02;95405.66;5081436;28;20841;-59
2023/09/10 05:03:18;;;;;;;10.13;3.50;;;15.40;86.60;;;15.87;54.22;95409.31;5087211;28;20521;-60
2023/09/10 05:05:47;;;;;;;4.80;3.67;;;15.50;86.90;;;15.93;53.97;95410.50;5078880;28;20459;-58
2023/09/10 05:08:14;;;;;;;8.20;4.30;;;15.60;86.80;;;15.99;53.81;95401.91;5082362;28;20442;-59
2023/09/10 05:10:41;;;;;;;6.37;3.97;;;15.60;86.80;;;16.08;53.91;95408.91;5078659;28;20572;-60
2023/09/10 05:13:09;;;;;;;6.37;3.50;;;15.70;87.20;;;16.24;53.86;95412.59;5078662;28;20550;-60
2023/09/10 05:15:36;;;;;;;10.00;3.50;;;15.90;87.10;;;16.38;53.35;95406.66;5079268;28;20906;-60
2023/09/10 05:18:03;;;;;;;17.30;4.73;;;16.00;86.50;;;16.47;53.35;95408.34;5082263;28;20481;-60
2023/09/10 05:20:32;;;;;;;6.20;3.80;;;16.10;85.90;;;16.55;53.33;95415.50;5081290;28;20485;-60
2023/09/10 05:23:00;;;;;;;5.90;3.40;;;16.20;85.60;;;16.62;53.18;95407.69;5085112;28;20499;-60
2023/09/10 05:25:28;;;;;;;6.53;3.97;;;16.20;85.30;;;16.69;52.86;95414.00;5081004;28;20461;-61
2023/09/10 05:27:55;;;;;;;19.63;3.87;;;16.30;84.80;;;16.82;52.81;95417.03;5081955;28;20511;-60
2023/09/10 05:30:22;;;;;;;10.60;4.00;;;16.40;84.40;;;16.95;52.44;95419.22;5080647;28;20580;-60
2023/09/10 05:32:49;;;;;;;14.70;3.53;;;16.50;83.90;;;17.07;52.19;95425.03;5080922;28;20449;-59
2023/09/10 05:35:17;;;;;;;8.87;4.07;;;16.60;84.10;;;17.17;52.01;95420.38;5079391;28;20463;-59
2023/09/10 05:37:44;;;;;;;7.67;3.60;;;16.70;82.70;;;17.29;51.66;95426.19;5088795;28;20454;-60
2023/09/10 05:40:13;;;;;;;4.93;3.70;;;16.80;82.40;;;17.46;51.24;95426.16;5078366;28;20486;-59
2023/09/10 05:42:40;;;;;;;3.53;2.70;;;17.00;81.60;;;17.69;50.16;95418.28;5080056;28;20482;-60
2023/09/10 05:45:09;;;;;;;6.53;4.27;;;17.20;79.60;;;17.91;50.04;95417.59;5085352;28;20527;-59
2023/09/10 05:47:36;;;;;;;8.60;3.50;;;17.40;78.80;;;18.13;49.58;95417.84;5080569;28;20464;-60
2023/09/10 05:50:03;;;;;;;4.33;3.63;;;17.60;77.50;;;18.37;49.13;95419.56;5083084;28;20478;-59
2023/09/10 05:52:31;;;;;;;7.93;3.40;;;17.80;76.80;;;18.61;48.44;95423.91;5080447;28;20462;-59
2023/09/10 05:54:58;;;;;;;13.77;4.10;;;18.00;76.10;;;18.84;48.54;95423.13;5083055;28;20897;-60
2023/09/10 05:57:26;;;;;;;20.73;4.50;;;18.30;75.30;;;19.08;47.47;95418.63;5078870;28;20467;-60
2023/09/10 05:59:54;;;;;;;6.83;3.73;;;18.50;74.40;;;19.32;47.20;95417.59;5083847;28;21022;-60
2023/09/10 06:02:21;;;;;;;10.97;3.80;;;18.80;73.50;;;19.57;46.53;95422.69;5080638;28;20481;-59
2023/09/10 06:04:49;;;;;;;5.37;3.10;;;19.00;72.50;;;19.81;46.48;95429.63;5079479;28;20467;-59
2023/09/10 06:07:16;;;;;;;5.30;3.23;;;19.20;71.80;;;20.06;46.08;95425.69;5079958;28;20618;-59
2023/09/10 06:09:43;;;;;;;7.33;3.60;;;19.40;71.90;;;20.32;45.96;95428.88;5081489;28;20470;-60
2023/09/10 06:12:10;;;;;;;6.43;4.23;;;19.70;70.60;;;20.57;45.59;95437.41;5080395;28;20450;-61
2023/09/10 06:14:39;;;;;;;9.27;4.00;;;19.90;69.60;;;20.79;45.26;95422.28;5078743;28;20483;-60
2023/09/10 06:17:06;;;;;;;17.50;4.50;;;20.20;69.10;;;21.09;44.82;95433.66;5084103;28;20457;-60
2023/09/10 06:19:33;;;;;;;8.30;4.80;;;20.40;68.60;;;21.35;44.39;95437.59;5078405;28;20463;-59
2023/09/10 06:22:01;;;;;;;6.47;3.80;;;20.70;67.50;;;21.62;43.94;95432.47;5080855;28;20453;-59
2023/09/10 06:24:28;;;;;;;17.33;3.80;;;21.00;67.30;;;21.89;43.40;95438.00;5078453;28;20566;-61
2023/09/10 06:26:55;;;;;;;16.23;3.87;;;21.20;66.30;;;22.13;43.38;95431.34;5080637;28;20519;-61
2023/09/10 06:29:23;;;;;;;8.00;3.30;;;21.50;65.20;;;22.42;42.42;95438.34;5078028;28;20520;-60
2023/09/10 06:31:51;;;;;;;11.10;4.67;;;21.80;64.90;;;22.69;42.27;95436.56;5081100;28;20500;-62
2023/09/10 06:34:18;;;;;;;13.83;4.20;;;22.00;64.00;;;22.95;41.37;95434.19;5077360;28;20536;-62
2023/09/10 06:36:46;;;;;;;7.13;4.13;;;22.30;63.10;;;23.19;41.11;95432.78;5077523;28;20458;-62
2023/09/10 06:39:13;;;;;;;6.20;3.20;;;22.50;61.90;;;23.43;40.68;95432.19;5076938;28;21029;-60
2023/09/10 06:41:40;;;;;;;10.20;3.00;;;22.80;61.80;;;23.72;40.68;95429.28;5083849;28;20454;-61
2023/09/10 06:44:07;;;;;;;3.43;3.13;;;23.00;61.00;;;23.93;40.05;95429.06;5080102;28;20501;-61
2023/09/10 06:46:35;;;;;;;10.57;3.83;;;23.30;60.60;;;24.16;40.13;95433.97;5077527;28;20466;-60
2023/09/10 06:49:03;;;;;;;17.50;3.40;;;23.50;59.90;;;24.41;39.59;95427.09;5078003;28;20480;-60
2023/09/10 06:51:31;;;;;;;6.33;2.60;;;23.70;59.70;;;24.66;39.46;95427.22;5080825;28;20460;-59
2023/09/10 06:53:58;;;;;;;5.30;3.07;;;24.00;59.00;;;24.87;38.20;95424.19;5080494;28;21020;-61
2023/09/10 06:56:26;;;;;;;4.93;2.70;;;24.20;57.90;;;25.00;38.07;95420.63;5080161;28;20454;-60
2023/09/10 06:58:53;;;;;;;7.70;2.93;;;24.30;57.00;;;25.09;37.19;95425.75;5077958;28;20529;-61
2023/09/10 07:01:21;;;;;;;4.27;2.83;;;24.40;56.40;;;25.19;37.35;95420.69;5079820;28;20462;-61
2023/09/10 07:03:50;;;;;;;7.93;3.10;;;24.50;56.00;;;25.34;37.46;95417.72;5075564;28;20498;-61
2023/09/10 07:06:19;;;;;;;12.17;2.90;;;24.60;56.10;;;25.61;37.35;95425.56;5077558;28;20535;-61
2023/09/10 07:08:46;;;;;;;8.47;4.47;;;24.80;56.20;;;25.92;36.52;95424.69;5085871;28;20986;-60
2023/09/10 07:11:13;;;;;;;12.50;3.10;;;25.10;55.70;;;26.26;36.21;95427.91;5079876;28;20494;-61
2023/09/10 07:13:41;;;;;;;7.90;3.40;;;25.50;55.00;;;26.61;35.75;95429.97;5080726;28;20465;-59
2023/09/10 07:16:08;;;;;;;6.27;3.00;;;25.80;54.60;;;26.94;35.26;95426.88;5079324;28;20990;-62
2023/09/10 07:18:36;;;;;;;3.57;3.27;;;26.10;54.10;;;27.29;35.09;95428.84;5080231;28;20534;-60
2023/09/10 07:21:03;;;;;;;6.90;2.97;;;26.50;53.70;;;27.67;34.91;95424.09;5080321;28;20450;-62
2023/09/10 07:23:32;;;;;;;10.27;3.27;;;26.90;53.30;;;28.08;34.38;95427.78;5077543;28;20991;-60
2023/09/10 07:25:59;;;;;;;11.23;3.50;;;27.30;52.60;;;28.47;33.82;95428.09;5080117;28;20507;-60
2023/09/10 07:28:26;;;;;;;7.70;2.87;;;27.70;51.50;;;28.87;32.90;95418.34;5076400;28;20517;-60
2023/09/10 07:30:54;;;;;;;4.37;3.20;;;28.00;51.40;;;29.28;32.26;95421.81;5082550;28;20936;-60
2023/09/10 07:33:21;;;;;;;6.10;2.90;;;28.40;50.80;;;29.62;32.58;95422.69;5078441;28;20450;-59
2023/09/10 07:35:49;;;;;;;4.07;2.97;;;28.80;49.80;;;29.98;31.61;95417.03;5075503;28;20566;-59
2023/09/10 07:38:16;;;;;;;3.90;3.17;;;29.10;49.20;;;30.38;31.39;95408.63;5078122;28;20447;-60
2023/09/10 07:40:45;;;;;;;6.53;2.80;;;29.50;48.60;;;30.84;30.93;95410.28;5079860;28;20457;-61
2023/09/10 07:43:12;;;;;;;3.40;2.80;;;30.00;48.40;;;31.27;30.65;95420.25;5080845;28;20485;-60
2023/09/10 07:45:40;;;;;;;4.67;3.37;;;30.50;47.80;;;31.74;30.25;95423.41;5079294;28;20449;-62
2023/09/10 07:48:08;;;;;;;4.73;3.17;;;30.90;46.70;;;32.13;29.65;95421.28;5084143;28;20544;-62
2023/09/10 07:50:35;;;;;;;12.03;3.33;;;31.40;46.00;;;32.52;28.73;95414.69;5083351;28;20196;-62
2023/09/10 07:53:02;;;;;;;5.10;3.60;;;31.90;44.60;;;32.83;28.59;95410.19;5084739;28;20739;-59
2023/09/10 07:55:30;;;;;;;7.30;3.00;;;32.30;44.10;;;33.20;27.96;95403.78;5088432;28;20219;-59
2023/09/10 07:57:58;;;;;;;5.53;3.00;;;32.80;43.50;;;33.56;28.39;95403.78;5080529;28;20207;-60
2023/09/10 08:00:26;;;;;;;3.50;3.20;;;33.20;43.30;;;33.89;26.73;95401.63;5089268;28;20226;-60
2023/09/10 08:02:53;;;;;;;11.15;4.38;;;33.50;42.00;;;34.19;27.22;95402.69;5084079;28;20253;-59
2023/09/10 08:05:20;;;;;;;8.30;2.92;;;33.80;41.70;;;34.49;26.51;95400.97;5082517;28;20227;-60
2023/09/10 08:07:48;;;;;;;7.35;3.17;;;34.00;41.20;;;34.75;25.59;95406.31;5081359;28;20204;-59
2023/09/10 08:10:15;;;;;;;5.53;2.95;;;34.30;39.60;;;34.81;25.94;95407.94;5083839;28;20640;-59
2023/09/10 08:12:42;;;;;;;3.70;2.78;;;34.40;39.70;;;34.99;25.65;95401.84;5081316;28;20228;-61
2023/09/10 08:15:11;;;;;;;12.13;2.60;;;34.60;39.10;;;35.16;24.96;95400.66;5085827;28;20223;-60
2023/09/10 08:17:39;;;;;;;10.68;3.63;;;34.80;38.80;;;35.32;25.10;95394.03;5083703;28;20256;-60
2023/09/10 08:20:07;;;;;;;5.75;3.58;;;35.00;38.50;;;35.47;24.38;95397.75;5080013;28;20634;-60
2023/09/10 08:22:34;;;;;;;4.15;2.85;;;35.20;37.90;;;35.68;24.39;95396.47;5088501;28;20278;-60
2023/09/10 08:25:04;;;;;;;4.03;2.80;;;35.40;37.60;;;35.90;24.38;95398.78;5076546;28;20255;-61
2023/09/10 08:27:31;;;;;;;3.72;3.38;;;35.70;37.30;;;36.10;24.03;95396.94;5082805;28;20199;-61
2023/09/10 08:29:58;;;;;;;2.83;2.63;;;36.00;36.80;;;36.29;24.34;95397.03;5079608;28;20239;-61
2023/09/10 08:32:27;;;;;;;8.00;3.33;;;36.10;36.70;;;36.53;23.94;95398.97;5082357;28;20200;-59
2023/09/10 08:34:55;;;;;;;7.28;3.08;;;36.30;36.40;;;36.59;23.07;95389.56;5079795;28;20344;-59
2023/09/10 08:37:22;;;;;;;4.32;3.08;;;36.40;35.30;;;36.52;23.22;95392.66;5079746;28;20210;-61
2023/09/10 08:39:50;;;;;;;9.95;3.38;;;36.30;35.70;;;36.56;23.35;95384.66;5081411;28;20235;-61
2023/09/10 08:42:21;;;;;;;4.35;3.05;;;36.30;35.20;;;36.41;23.02;95382.94;5078018;28;20196;-61
2023/09/10 08:44:56;;;;;;;5.07;3.58;;;36.10;35.60;;;36.20;22.49;95382.31;5081435;28;20313;-59
2023/09/10 08:47:24;;;;;;;3.38;3.17;;;35.80;35.10;;;35.92;23.50;95383.97;5085612;28;20276;-61
2023/09/10 08:49:57;;;;;;;9.98;3.47;;;35.60;35.50;;;35.76;22.99;95381.38;5084917;28;20218;-62
2023/09/10 08:52:24;;;;;;;3.72;3.38;;;35.40;35.70;;;35.63;23.81;95384.75;5079595;28;20204;-60
2023/09/10 08:54:52;;;;;;;12.55;3.53;;;35.20;35.60;;;35.48;24.19;95385.72;5082624;28;20219;-60
2023/09/10 08:57:19;;;;;;;11.63;3.35;;;35.00;36.10;;;35.42;23.59;95386.84;5077906;28;20749;-60
2023/09/10 08:59:46;;;;;;;12.10;3.80;;;34.90;36.10;;;35.39;23.65;95377.28;5078269;28;20646;-61
2023/09/10 09:02:13;;;;;;;15.20;3.67;;;34.80;36.40;;;35.44;23.42;95384.63;5070446;28;20283;-63
2023/09/10 09:04:41;;;;;;;5.93;3.50;;;34.80;36.40;;;35.44;23.51;95381.91;5080256;28;20257;-62
2023/09/10 09:07:12;;;;;;;9.27;3.47;;;34.80;36.40;;;35.43;23.72;95377.53;5080917;28;20204;-63
2023/09/10 09:09:43;;;;;;;6.20;3.45;;;34.70;36.40;;;35.44;23.58;95379.97;5082313;28;20220;-62
2023/09/10 09:12:10;;;;;;;7.88;3.72;;;34.70;36.40;;;35.48;23.95;95372.03;5081862;28;20240;-61
2023/09/10 09:14:42;;;;;;;6.03;3.47;;;34.70;36.40;;;35.32;23.66;95374.03;5082387;28;20247;-61
2023/09/10 09:17:11;;;;;;;4.05;3.38;;;34.60;36.30;;;35.11;23.23;95376.91;5082581;28;20200;-60
2023/09/10 09:19:39;;;;;;;6.57;3.30;;;34.50;36.30;;;34.78;23.37;95367.53;5083660;28;20276;-61
2023/09/10 09:22:07;;;;;;;8.80;3.25;;;34.20;36.70;;;34.46;24.09;95371.47;5082106;28;20691;-62
2023/09/10 09:24:37;;;;;;;4.60;3.85;;;34.00;36.70;;;34.30;23.95;95367.97;5080446;28;20235;-62
2023/09/10 09:27:05;;;;;;;7.25;3.75;;;33.70;37.10;;;34.17;25.07;95366.63;5083995;28;20343;-60
2023/09/10 09:29:32;;;;;;;4.32;3.67;;;33.50;37.60;;;34.28;25.40;95375.63;5082480;28;20219;-60
2023/09/10 09:31:59;;;;;;;5.45;3.78;;;33.50;37.90;;;34.40;25.21;95367.13;5084296;28;20192;-61
2023/09/10 09:34:27;;;;;;;3.95;3.65;;;33.60;37.60;;;34.49;24.47;95360.00;5081696;28;20231;-60
2023/09/10 09:36:54;;;;;;;4.57;2.83;;;33.60;37.50;;;34.43;24.83;95361.91;5080207;28;20187;-63
2023/09/10 09:39:21;;;;;;;5.72;3.53;;;33.60;37.50;;;34.56;24.52;95365.16;5079318;28;20215;-62
2023/09/10 09:41:51;;;;;;;12.32;3.53;;;33.70;38.00;;;34.80;24.23;95355.22;5090755;28;20200;-61
2023/09/10 09:44:19;;;;;;;4.93;3.10;;;33.80;38.20;;;35.04;24.88;95359.97;5079207;28;20278;-62
2023/09/10 09:46:48;;;;;;;9.43;4.20;;;34.10;37.60;;;34.97;24.46;95360.31;5084419;28;20264;-62
2023/09/10 09:49:15;;;;;;;5.60;3.45;;;34.10;36.40;;;34.77;24.68;95354.97;5079826;28;20220;-62
2023/09/10 09:51:43;;;;;;;11.02;4.22;;;34.00;36.90;;;34.67;24.23;95358.53;5080380;28;20199;-62
2023/09/10 09:54:10;;;;;;;11.02;3.90;;;33.90;37.00;;;34.47;24.30;95345.78;5068960;28;20878;-62
2023/09/10 09:56:37;;;;;;;5.15;3.30;;;33.80;37.10;;;34.24;24.31;95339.88;5071149;28;20952;-62
2023/09/10 09:59:06;;;;;;;11.68;4.80;;;33.60;37.00;;;34.02;25.24;95339.34;5085170;28;20243;-62
2023/09/10 10:01:36;;;;;;;4.25;3.70;;;33.40;37.40;;;33.92;24.84;95330.09;5078888;28;20195;-60
2023/09/10 10:04:05;;;;;;;5.55;3.85;;;33.20;37.40;;;33.87;24.95;95329.31;5080367;28;20227;-62
2023/09/10 10:06:32;;;;;;;10.63;4.03;;;33.20;37.80;;;33.98;25.56;95332.84;5082693;28;20653;-62
2023/09/10 10:09:01;;;;;;;7.93;3.85;;;33.10;38.00;;;34.12;24.68;95340.16;5076971;28;20288;-62
2023/09/10 10:11:30;;;;;;;4.07;3.67;;;33.30;38.10;;;34.19;25.56;95331.69;5081214;28;20200;-61
2023/09/10 10:13:58;;;;;;;6.43;4.22;;;33.30;37.90;;;34.30;24.77;95319.63;5081106;28;20247;-61
2023/09/10 10:16:27;;;;;;;18.48;4.88;;;33.40;38.10;;;34.52;24.33;95326.66;5077431;28;20196;-61
2023/09/10 10:18:55;;;;;;;6.00;3.42;;;33.60;37.30;;;34.39;24.65;95321.78;5079715;28;20227;-62
2023/09/10 10:21:22;;;;;;;5.88;3.50;;;33.60;37.10;;;34.12;24.34;95322.97;5080303;28;20291;-60